createdAt,value
2019-02-27T00:00:20.681Z,15.91
2019-02-27T00:01:20.667Z,15.81
2019-02-27T00:02:23.406Z,16
2019-02-27T00:03:20.613Z,16.09
2019-02-27T00:04:20.598Z,16
2019-02-27T00:05:20.584Z,16
2019-02-27T00:06:20.555Z,15.91
2019-02-27T00:07:23.357Z,16
2019-02-27T00:08:20.513Z,15.91
2019-02-27T00:09:20.500Z,16
2019-02-27T00:10:20.478Z,15.91
2019-02-27T00:11:20.442Z,16.29
2019-02-27T00:12:22.310Z,16
2019-02-27T00:13:24.659Z,15.81
2019-02-27T00:14:20.397Z,15.91
2019-02-27T00:15:20.362Z,15.91
2019-02-27T00:16:20.346Z,16.19
2019-02-27T00:17:21.177Z,15.81
2019-02-27T00:18:23.698Z,16.09
2019-02-27T00:19:20.297Z,15.91
2019-02-27T00:20:20.267Z,15.81
2019-02-27T00:21:20.240Z,15.61
2019-02-27T00:22:20.823Z,16.09
2019-02-27T00:23:23.814Z,15.81
2019-02-27T00:24:20.189Z,15.81
2019-02-27T00:25:20.157Z,15.91
2019-02-27T00:26:20.141Z,15.91
2019-02-27T00:27:20.122Z,15.81
2019-02-27T00:28:23.095Z,15.81
2019-02-27T00:29:20.082Z,16.09
2019-02-27T00:30:20.049Z,16.09
2019-02-27T00:31:20.044Z,15.91
2019-02-27T00:32:21.488Z,15.91
2019-02-27T00:33:24.879Z,15.91
2019-02-27T00:34:19.967Z,16
2019-02-27T00:35:19.946Z,16.09
2019-02-27T00:36:19.929Z,15.81
2019-02-27T00:37:21.818Z,15.81
2019-02-27T00:38:19.889Z,15.91
2019-02-27T00:39:19.863Z,15.91
2019-02-27T00:40:19.864Z,15.91
2019-02-27T00:41:19.830Z,15.91
2019-02-27T00:42:33.008Z,15.81
2019-02-27T00:43:19.780Z,15.91
2019-02-27T00:44:19.764Z,15.91
2019-02-27T00:45:19.738Z,16
2019-02-27T00:46:19.726Z,16.19
2019-02-27T00:47:22.972Z,15.91
2019-02-27T00:48:19.679Z,15.81
2019-02-27T00:49:19.754Z,16.19
2019-02-27T00:50:19.643Z,15.61
2019-02-27T00:51:19.629Z,15.91
2019-02-27T00:52:21.134Z,16
2019-02-27T00:53:21.910Z,15.91
2019-02-27T00:54:19.554Z,15.81
2019-02-27T00:55:19.542Z,15.61
2019-02-27T00:56:19.519Z,16.09
2019-02-27T00:57:23.082Z,15.81
2019-02-27T00:58:19.464Z,16.19
2019-02-27T00:59:19.455Z,16.09
2019-02-27T01:00:19.428Z,15.52
2019-02-27T01:01:19.413Z,15.91
2019-02-27T01:02:22.476Z,15.61
2019-02-27T01:03:19.371Z,15.91
2019-02-27T01:04:19.348Z,16.09
2019-02-27T01:05:19.334Z,15.91
2019-02-27T01:06:19.297Z,15.91
2019-02-27T01:07:22.823Z,16
2019-02-27T01:08:19.262Z,15.91
2019-02-27T01:09:19.245Z,15.81
2019-02-27T01:10:19.218Z,15.91
2019-02-27T01:11:21.278Z,16
2019-02-27T01:12:19.179Z,15.91
2019-02-27T01:13:19.161Z,15.91
2019-02-27T01:14:19.145Z,16.09
2019-02-27T01:15:19.108Z,16
2019-02-27T01:16:20.109Z,16.09
2019-02-27T01:17:20.881Z,15.89
2019-02-27T01:18:19.074Z,16.09
2019-02-27T01:19:19.027Z,15.89
2019-02-27T01:20:19.007Z,15.89
2019-02-27T01:21:21.649Z,15.91
2019-02-27T01:22:18.974Z,15.89
2019-02-27T01:23:18.953Z,15.91
2019-02-27T01:24:20.359Z,16
2019-02-27T01:25:22.837Z,15.89
2019-02-27T01:26:18.897Z,15.89
2019-02-27T01:27:18.869Z,16.19
2019-02-27T01:28:18.852Z,16.09
2019-02-27T01:29:21.066Z,15.89
2019-02-27T01:30:18.796Z,16.19
2019-02-27T01:31:18.787Z,16.09
2019-02-27T01:32:18.761Z,15.89
2019-02-27T01:33:18.746Z,15.89
2019-02-27T01:34:18.708Z,15.91
2019-02-27T01:35:21.220Z,15.89
2019-02-27T01:36:18.674Z,15.89
2019-02-27T01:37:18.668Z,15.89
2019-02-27T01:38:18.630Z,15.89
2019-02-27T01:39:18.604Z,15.99
2019-02-27T01:40:20.263Z,15.8
2019-02-27T01:41:18.574Z,15.8
2019-02-27T01:42:18.546Z,15.89
2019-02-27T01:43:18.520Z,15.89
2019-02-27T01:44:18.515Z,15.89
2019-02-27T01:45:23.061Z,15.89
2019-02-27T01:46:18.472Z,15.89
2019-02-27T01:47:18.436Z,15.89
2019-02-27T01:48:18.424Z,15.99
2019-02-27T01:49:19.172Z,15.8
2019-02-27T01:50:19.880Z,15.8
2019-02-27T01:51:18.357Z,15.89
2019-02-27T01:52:18.337Z,15.89
2019-02-27T01:53:18.311Z,15.89
2019-02-27T01:54:18.302Z,15.89
2019-02-27T01:55:21.593Z,15.89
2019-02-27T01:56:18.015Z,15.89
2019-02-27T01:57:18.227Z,15.99
2019-02-27T01:58:18.214Z,15.8
2019-02-27T01:59:19.938Z,15.89
2019-02-27T02:00:18.170Z,15.99
2019-02-27T02:01:18.144Z,15.99
2019-02-27T02:02:18.127Z,15.99
2019-02-27T02:03:18.114Z,15.99
2019-02-27T02:04:22.562Z,15.99
2019-02-27T02:05:18.072Z,15.99
2019-02-27T02:06:18.040Z,15.8
2019-02-27T02:07:18.028Z,15.8
2019-02-27T02:08:18.004Z,15.89
2019-02-27T02:09:21.000Z,15.99
2019-02-27T02:10:17.957Z,15.89
2019-02-27T02:11:17.934Z,15.8
2019-02-27T02:12:17.923Z,15.8
2019-02-27T02:13:18.249Z,15.89
2019-02-27T02:14:20.937Z,15.8
2019-02-27T02:15:17.848Z,15.99
2019-02-27T02:16:17.838Z,15.8
2019-02-27T02:17:17.820Z,15.7
2019-02-27T02:18:17.799Z,15.61
2019-02-27T02:19:18.926Z,15.7
2019-02-27T02:20:17.752Z,15.7
2019-02-27T02:21:17.724Z,15.7
2019-02-27T02:22:17.711Z,15.7
2019-02-27T02:23:17.681Z,15.7
2019-02-27T02:24:20.887Z,15.89
2019-02-27T02:25:17.637Z,15.7
2019-02-27T02:26:17.629Z,15.7
2019-02-27T02:27:17.606Z,16.19
2019-02-27T02:28:17.878Z,15.61
2019-02-27T02:29:17.858Z,15.7
2019-02-27T02:30:17.544Z,15.8
2019-02-27T02:31:17.530Z,15.8
2019-02-27T02:32:20.406Z,15.7
2019-02-27T02:33:17.486Z,16.19
2019-02-27T02:34:17.450Z,15.7
2019-02-27T02:35:18.399Z,16.28
2019-02-27T02:36:17.417Z,16.19
2019-02-27T02:37:17.404Z,15.7
2019-02-27T02:38:17.384Z,16.19
2019-02-27T02:39:20.769Z,16.28
2019-02-27T02:40:17.336Z,16.19
2019-02-27T02:41:17.303Z,15.8
2019-02-27T02:42:17.294Z,16.09
2019-02-27T02:43:17.274Z,16.19
2019-02-27T02:44:23.291Z,15.99
2019-02-27T02:45:17.225Z,16.28
2019-02-27T02:46:17.209Z,16.19
2019-02-27T02:47:22.493Z,16.19
2019-02-27T02:48:17.163Z,16.19
2019-02-27T02:49:17.134Z,16.28
2019-02-27T02:50:20.720Z,16.19
2019-02-27T02:51:17.114Z,15.99
2019-02-27T02:52:17.075Z,16.28
2019-02-27T02:53:17.067Z,16.28
2019-02-27T02:54:17.034Z,16.28
2019-02-27T02:55:17.051Z,16.19
2019-02-27T02:56:17.013Z,15.99
2019-02-27T02:57:16.978Z,16.28
2019-02-27T02:58:16.943Z,16.28
2019-02-27T02:59:16.924Z,16.28
2019-02-27T03:00:16.911Z,16.19
2019-02-27T03:01:17.916Z,16.19
2019-02-27T03:02:16.869Z,15.99
2019-02-27T03:03:16.839Z,16.28
2019-02-27T03:04:16.829Z,16.28
2019-02-27T03:05:16.808Z,16.19
2019-02-27T03:06:16.787Z,16.28
2019-02-27T03:07:16.770Z,16.09
2019-02-27T03:08:22.413Z,16.28
2019-02-27T03:09:16.721Z,16.09
2019-02-27T03:10:16.703Z,16.28
2019-02-27T03:11:20.595Z,16.09
2019-02-27T03:12:16.667Z,16.28
2019-02-27T03:13:16.630Z,16.28
2019-02-27T03:14:20.778Z,16.09
2019-02-27T03:15:16.611Z,16.28
2019-02-27T03:16:16.569Z,16.28
2019-02-27T03:17:20.546Z,16.28
2019-02-27T03:18:16.529Z,16.28
2019-02-27T03:19:16.523Z,16.28
2019-02-27T03:20:20.113Z,16.28
2019-02-27T03:21:16.459Z,16.28
2019-02-27T03:22:16.456Z,16.19
2019-02-27T03:23:18.653Z,16.28
2019-02-27T03:24:16.417Z,16.28
2019-02-27T03:25:16.387Z,16.09
2019-02-27T03:26:19.961Z,16.09
2019-02-27T03:27:16.343Z,16.19
2019-02-27T03:28:16.325Z,16.28
2019-02-27T03:29:19.501Z,16.09
2019-02-27T03:30:16.278Z,16.28
2019-02-27T03:31:21.007Z,16.28
2019-02-27T03:32:16.242Z,16.28
2019-02-27T03:33:27.315Z,16.09
2019-02-27T03:34:16.201Z,16.09
2019-02-27T03:35:16.173Z,16.28
2019-02-27T03:36:16.151Z,15.99
2019-02-27T03:37:16.708Z,16.28
2019-02-27T03:38:16.112Z,16.28
2019-02-27T03:39:16.087Z,16.28
2019-02-27T03:40:16.080Z,16.09
2019-02-27T03:41:16.044Z,16.19
2019-02-27T03:42:16.042Z,15.99
2019-02-27T03:43:15.995Z,15.99
2019-02-27T03:44:20.183Z,16.19
2019-02-27T03:45:15.955Z,16.28
2019-02-27T03:46:15.951Z,15.99
2019-02-27T03:47:19.270Z,16.09
2019-02-27T03:48:15.896Z,16.09
2019-02-27T03:49:15.871Z,16.19
2019-02-27T03:50:17.976Z,16.28
2019-02-27T03:51:15.868Z,15.99
2019-02-27T03:52:15.915Z,16.08
2019-02-27T03:53:15.789Z,16.19
2019-02-27T03:54:20.395Z,16.08
2019-02-27T03:55:15.755Z,15.99
2019-02-27T03:56:15.489Z,16.08
2019-02-27T03:57:21.549Z,16.18
2019-02-27T03:58:15.737Z,16.08
2019-02-27T03:59:15.671Z,15.99
2019-02-27T04:00:20.520Z,15.99
2019-02-27T04:01:15.632Z,15.99
2019-02-27T04:02:15.594Z,15.99
2019-02-27T04:03:19.573Z,15.99
2019-02-27T04:04:15.558Z,16.19
2019-02-27T04:05:15.547Z,15.89
2019-02-27T04:06:19.615Z,16.09
2019-02-27T04:07:15.492Z,15.99
2019-02-27T04:08:15.479Z,15.99
2019-02-27T04:09:21.432Z,15.99
2019-02-27T04:10:15.436Z,15.99
2019-02-27T04:11:15.409Z,15.99
2019-02-27T04:12:18.682Z,16.09
2019-02-27T04:13:15.361Z,15.99
2019-02-27T04:14:15.351Z,16.08
2019-02-27T04:15:20.255Z,16.09
2019-02-27T04:16:15.297Z,16.09
2019-02-27T04:17:15.276Z,16.09
2019-02-27T04:18:15.268Z,15.99
2019-02-27T04:19:15.244Z,15.99
2019-02-27T04:20:17.925Z,15.99
2019-02-27T04:21:15.205Z,15.8
2019-02-27T04:22:15.200Z,15.89
2019-02-27T04:23:15.304Z,16.08
2019-02-27T04:24:15.133Z,16.09
2019-02-27T04:25:15.120Z,16.18
2019-02-27T04:26:15.104Z,15.89
2019-02-27T04:27:19.955Z,16.08
2019-02-27T04:28:15.053Z,16.18
2019-02-27T04:29:15.030Z,16.08
2019-02-27T04:30:17.936Z,16.18
2019-02-27T04:31:14.912Z,16.28
2019-02-27T04:32:15.680Z,16.08
2019-02-27T04:33:14.970Z,16.18
2019-02-27T04:34:14.930Z,16.56
2019-02-27T04:35:14.903Z,16.28
2019-02-27T04:36:15.789Z,16.18
2019-02-27T04:37:14.848Z,16.66
2019-02-27T04:38:14.839Z,16.18
2019-02-27T04:39:14.818Z,16.56
2019-02-27T04:40:14.790Z,16.18
2019-02-27T04:41:17.789Z,16.08
2019-02-27T04:42:14.743Z,16.08
2019-02-27T04:43:14.733Z,16.56
2019-02-27T04:44:14.708Z,16.37
2019-02-27T04:45:15.531Z,16.18
2019-02-27T04:46:14.657Z,16.08
2019-02-27T04:47:14.647Z,16.08
2019-02-27T04:48:14.625Z,16.37
2019-02-27T04:49:14.604Z,16.18
2019-02-27T04:50:14.573Z,16.28
2019-02-27T04:51:19.288Z,16.18
2019-02-27T04:52:14.536Z,16.18
2019-02-27T04:53:14.523Z,16.18
2019-02-27T04:54:14.493Z,16.28
2019-02-27T04:55:17.841Z,16.37
2019-02-27T04:56:14.460Z,16.18
2019-02-27T04:57:14.436Z,16.18
2019-02-27T04:58:14.414Z,16.18
2019-02-27T04:59:18.185Z,16.37
2019-02-27T05:00:14.370Z,16.18
2019-02-27T05:01:14.339Z,16.28
2019-02-27T05:02:16.874Z,15.99
2019-02-27T05:03:14.297Z,16.37
2019-02-27T05:04:14.294Z,16.18
2019-02-27T05:05:14.259Z,15.99
2019-02-27T05:06:16.832Z,16.18
2019-02-27T05:07:14.223Z,16.18
2019-02-27T05:08:14.241Z,16.18
2019-02-27T05:09:15.218Z,15.89
2019-02-27T05:10:14.155Z,16.28
2019-02-27T05:11:16.576Z,16.08
2019-02-27T05:12:14.112Z,16.18
2019-02-27T05:13:14.083Z,16.28
2019-02-27T05:14:14.062Z,16.18
2019-02-27T05:15:14.054Z,16.37
2019-02-27T05:16:16.541Z,15.99
2019-02-27T05:17:14.010Z,16.18
2019-02-27T05:18:13.976Z,15.99
2019-02-27T05:19:15.243Z,15.99
2019-02-27T05:20:14.979Z,15.89
2019-02-27T05:21:13.925Z,16.18
2019-02-27T05:22:13.890Z,16.28
2019-02-27T05:23:13.876Z,16.28
2019-02-27T05:24:13.861Z,16.18
2019-02-27T05:25:15.147Z,16.37
2019-02-27T05:26:13.814Z,16.28
2019-02-27T05:27:13.786Z,15.89
2019-02-27T05:28:13.779Z,15.89
2019-02-27T05:29:15.697Z,16.18
2019-02-27T05:30:15.120Z,16.28
2019-02-27T05:31:18.034Z,16.28
2019-02-27T05:32:13.686Z,16.37
2019-02-27T05:33:13.669Z,16.28
2019-02-27T05:34:16.007Z,16.28
2019-02-27T05:35:13.618Z,16.28
2019-02-27T05:36:13.599Z,16.08
2019-02-27T05:37:13.576Z,16.18
2019-02-27T05:38:13.561Z,16.56
2019-02-27T05:39:14.885Z,16.18
2019-02-27T05:40:13.515Z,16.18
2019-02-27T05:41:13.491Z,16.18
2019-02-27T05:42:15.543Z,16.66
2019-02-27T05:43:16.291Z,16.18
2019-02-27T05:44:13.432Z,16.18
2019-02-27T05:45:13.418Z,15.89
2019-02-27T05:46:15.060Z,16.18
2019-02-27T05:47:14.282Z,16.18
2019-02-27T05:48:13.343Z,16.18
2019-02-27T05:49:13.330Z,16.18
2019-02-27T05:50:13.303Z,16.56
2019-02-27T05:51:13.293Z,16.47
2019-02-27T05:52:16.454Z,16.66
2019-02-27T05:53:13.245Z,15.99
2019-02-27T05:54:13.215Z,16.18
2019-02-27T05:55:13.412Z,16.08
2019-02-27T05:56:18.007Z,16.18
2019-02-27T05:57:13.160Z,16.37
2019-02-27T05:58:13.129Z,15.99
2019-02-27T05:59:13.102Z,16.08
2019-02-27T06:00:13.160Z,16.17
2019-02-27T06:01:13.074Z,16.18
2019-02-27T06:02:13.884Z,16.56
2019-02-27T06:03:13.031Z,16.18
2019-02-27T06:04:13.000Z,16.18
2019-02-27T06:05:12.999Z,16.28
2019-02-27T06:06:14.688Z,16.18
2019-02-27T06:07:12.949Z,16.28
2019-02-27T06:08:12.919Z,16.18
2019-02-27T06:09:13.364Z,16.18
2019-02-27T06:10:13.066Z,16.27
2019-02-27T06:11:12.887Z,16.28
2019-02-27T06:12:12.861Z,16.08
2019-02-27T06:13:16.289Z,16.18
2019-02-27T06:14:12.847Z,16.28
2019-02-27T06:15:12.764Z,16.18
2019-02-27T06:16:12.760Z,16.18
2019-02-27T06:17:15.325Z,16.07
2019-02-27T06:18:12.708Z,16.18
2019-02-27T06:19:12.677Z,16.17
2019-02-27T06:20:12.660Z,16.18
2019-02-27T06:21:13.296Z,15.99
2019-02-27T06:22:12.622Z,16.18
2019-02-27T06:23:12.591Z,16.28
2019-02-27T06:24:15.001Z,16.18
2019-02-27T06:25:12.549Z,16.18
2019-02-27T06:26:12.552Z,16.47
2019-02-27T06:27:12.690Z,16.47
2019-02-27T06:28:12.487Z,16.18
2019-02-27T06:29:12.464Z,15.88
2019-02-27T06:30:12.445Z,16.18
2019-02-27T06:31:12.428Z,15.79
2019-02-27T06:32:14.767Z,16.07
2019-02-27T06:33:14.797Z,16.08
2019-02-27T06:34:12.368Z,16.08
2019-02-27T06:35:12.911Z,15.89
2019-02-27T06:36:12.514Z,16.08
2019-02-27T06:37:15.288Z,15.89
2019-02-27T06:38:12.671Z,15.89
2019-02-27T06:39:12.576Z,15.79
2019-02-27T06:40:12.581Z,16.18
2019-02-27T06:41:15.316Z,15.79
2019-02-27T06:42:12.481Z,16.18
2019-02-27T06:43:12.163Z,16.08
2019-02-27T06:44:12.176Z,15.89
2019-02-27T06:45:14.910Z,16.18
2019-02-27T06:46:12.551Z,16.18
2019-02-27T06:47:12.528Z,16.18
2019-02-27T06:48:12.973Z,16.08
2019-02-27T06:49:12.424Z,15.89
2019-02-27T06:50:12.281Z,15.89
2019-02-27T06:51:12.389Z,15.99
2019-02-27T06:52:12.430Z,16.18
2019-02-27T06:53:15.389Z,16.18
2019-02-27T06:54:11.939Z,16.46
2019-02-27T06:55:13.175Z,16.18
2019-02-27T06:56:12.195Z,16.47
2019-02-27T06:57:12.400Z,16.18
2019-02-27T06:58:14.265Z,16.08
2019-02-27T06:59:12.146Z,16.08
2019-02-27T07:00:12.383Z,16.08
2019-02-27T07:01:15.575Z,16.47
2019-02-27T07:02:12.096Z,16.56
2019-02-27T07:03:11.744Z,16.56
2019-02-27T07:04:11.719Z,15.98
2019-02-27T07:05:15.879Z,16.47
2019-02-27T07:06:11.755Z,16.17
2019-02-27T07:07:11.416Z,16.17
2019-02-27T07:08:11.728Z,16.17
2019-02-27T07:09:14.530Z,16.17
2019-02-27T07:10:11.709Z,16.18
2019-02-27T07:11:13.383Z,15.98
2019-02-27T07:12:11.759Z,16.27
2019-02-27T07:13:11.597Z,16.56
2019-02-27T07:14:11.735Z,16.17
2019-02-27T07:15:14.969Z,16.56
2019-02-27T07:16:11.487Z,16.56
2019-02-27T07:17:11.444Z,16.27
2019-02-27T07:18:11.977Z,16.18
2019-02-27T07:19:13.129Z,16.17
2019-02-27T07:20:11.376Z,16.27
2019-02-27T07:21:11.359Z,16.36
2019-02-27T07:22:14.950Z,16.47
2019-02-27T07:23:11.305Z,16.17
2019-02-27T07:24:11.289Z,16.28
2019-02-27T07:25:11.269Z,16.17
2019-02-27T07:26:13.198Z,16.27
2019-02-27T07:27:11.219Z,16.27
2019-02-27T07:28:11.671Z,16.46
2019-02-27T07:29:11.186Z,16.17
2019-02-27T07:30:11.174Z,16.46
2019-02-27T07:31:12.466Z,16.08
2019-02-27T07:32:11.118Z,16.17
2019-02-27T07:33:11.088Z,15.88
2019-02-27T07:34:14.184Z,16.46
2019-02-27T07:35:11.094Z,15.78
2019-02-27T07:36:11.030Z,16.17
2019-02-27T07:37:15.075Z,16.07
2019-02-27T07:38:10.981Z,15.88
2019-02-27T07:39:10.972Z,15.88
2019-02-27T07:40:11.715Z,15.88
2019-02-27T07:41:10.930Z,16.17
2019-02-27T07:42:10.906Z,16.17
2019-02-27T07:43:10.939Z,16.07
2019-02-27T07:44:10.893Z,16.08
2019-02-27T07:45:13.646Z,16.07
2019-02-27T07:46:11.012Z,15.99
2019-02-27T07:47:10.816Z,15.98
2019-02-27T07:48:10.781Z,15.98
2019-02-27T07:49:10.766Z,16.27
2019-02-27T07:50:11.248Z,16.28
2019-02-27T07:51:10.701Z,16.17
2019-02-27T07:52:10.690Z,15.78
2019-02-27T07:53:10.670Z,15.69
2019-02-27T07:54:10.662Z,15.78
2019-02-27T07:55:26.044Z,15.99
2019-02-27T07:56:10.603Z,15.89
2019-02-27T07:57:10.577Z,15.89
2019-02-27T07:58:10.564Z,15.89
2019-02-27T07:59:10.537Z,15.98
2019-02-27T08:00:14.700Z,15.78
2019-02-27T08:01:10.508Z,15.88
2019-02-27T08:02:10.586Z,15.98
2019-02-27T08:03:13.374Z,15.78
2019-02-27T08:04:10.427Z,15.98
2019-02-27T08:05:10.408Z,15.59
2019-02-27T08:06:10.392Z,16.07
2019-02-27T08:07:14.613Z,15.88
2019-02-27T08:08:10.343Z,15.78
2019-02-27T08:09:10.329Z,15.88
2019-02-27T08:10:10.659Z,15.88
2019-02-27T08:11:13.064Z,16.07
2019-02-27T08:12:10.294Z,15.88
2019-02-27T08:13:10.240Z,16.07
2019-02-27T08:14:10.210Z,15.98
2019-02-27T08:15:10.807Z,15.39
2019-02-27T08:16:10.176Z,15.3
2019-02-27T08:17:20.117Z,15.78
2019-02-27T08:18:10.278Z,15.78
2019-02-27T08:19:12.237Z,15.39
2019-02-27T08:20:10.149Z,15.49
2019-02-27T08:21:10.069Z,15.78
2019-02-27T08:22:10.042Z,15.69
2019-02-27T08:23:10.228Z,15.69
2019-02-27T08:24:10.103Z,15.59
2019-02-27T08:25:10.184Z,15.59
2019-02-27T08:26:10.401Z,15.78
2019-02-27T08:27:12.667Z,15.69
2019-02-27T08:28:09.914Z,15.69
2019-02-27T08:29:09.890Z,15.78
2019-02-27T08:30:09.884Z,15.78
2019-02-27T08:31:09.851Z,15.69
2019-02-27T08:32:09.848Z,15.69
2019-02-27T08:33:11.369Z,15.78
2019-02-27T08:34:09.793Z,15.59
2019-02-27T08:35:09.782Z,15.39
2019-02-27T08:36:09.868Z,15.39
2019-02-27T08:37:09.715Z,15.2
2019-02-27T08:38:09.712Z,15.3
2019-02-27T08:39:09.725Z,15.49
2019-02-27T08:40:09.654Z,15.2
2019-02-27T08:41:09.628Z,15.11
2019-02-27T08:42:09.605Z,15.3
2019-02-27T08:43:13.271Z,15.31
2019-02-27T08:44:12.256Z,15.2
2019-02-27T08:45:18.913Z,15.39
2019-02-27T08:46:09.521Z,15.31
2019-02-27T08:47:12.466Z,15.01
2019-02-27T08:48:09.522Z,15.3
2019-02-27T08:49:09.467Z,15.3
2019-02-27T08:50:09.446Z,15.2
2019-02-27T08:51:11.417Z,15.3
2019-02-27T08:52:13.014Z,15.39
2019-02-27T08:53:09.436Z,15.39
2019-02-27T08:54:09.432Z,15.59
2019-02-27T08:55:18.362Z,15.21
2019-02-27T08:56:09.882Z,15.41
2019-02-27T08:57:09.294Z,15.31
2019-02-27T08:58:09.699Z,15.41
2019-02-27T08:59:09.243Z,14.92
2019-02-27T09:00:09.228Z,15.01
2019-02-27T09:01:09.196Z,15.11
2019-02-27T09:02:09.186Z,15.11
2019-02-27T09:03:09.166Z,14.92
2019-02-27T09:04:13.976Z,14.92
2019-02-27T09:05:09.113Z,15.01
2019-02-27T09:06:09.107Z,15.01
2019-02-27T09:07:09.107Z,15.01
2019-02-27T09:08:10.073Z,14.92
2019-02-27T09:09:10.387Z,15.11
2019-02-27T09:10:09.010Z,15.21
2019-02-27T09:11:09.285Z,15.11
2019-02-27T09:12:13.071Z,15.21
2019-02-27T09:13:08.947Z,15.21
2019-02-27T09:14:08.929Z,15.21
2019-02-27T09:15:08.915Z,15.21
2019-02-27T09:16:08.882Z,15.31
2019-02-27T09:17:08.863Z,15.31
2019-02-27T09:18:08.609Z,15.21
2019-02-27T09:20:08.804Z,15.31
2019-02-27T09:21:08.828Z,15.31
2019-02-27T09:22:08.997Z,15.31
2019-02-27T09:23:08.766Z,15.11
2019-02-27T09:24:08.605Z,15.31
2019-02-27T09:25:08.728Z,15.21
2019-02-27T09:26:08.683Z,14.92
2019-02-27T09:27:08.637Z,14.92
2019-02-27T09:28:11.457Z,15.01
2019-02-27T09:29:08.600Z,14.82
2019-02-27T09:30:08.574Z,14.14
2019-02-27T09:31:08.570Z,13.76
2019-02-27T09:32:09.236Z,13.56
2019-02-27T09:33:08.725Z,13.36
2019-02-27T09:34:08.706Z,12.68
2019-02-27T09:35:08.483Z,12.77
2019-02-27T09:36:12.465Z,12.87
2019-02-27T09:37:08.447Z,12.48
2019-02-27T09:38:08.718Z,12.96
2019-02-27T09:39:08.468Z,12.77
2019-02-27T09:40:08.450Z,12.77
2019-02-27T09:41:12.051Z,12.87
2019-02-27T09:42:08.403Z,12.96
2019-02-27T09:43:08.731Z,12.86
2019-02-27T09:44:08.166Z,12.86
2019-02-27T09:45:13.279Z,12.96
2019-02-27T09:46:08.726Z,12.85
2019-02-27T09:47:08.203Z,12.95
2019-02-27T09:48:08.204Z,12.85
2019-02-27T09:49:09.510Z,12.76
2019-02-27T09:50:08.149Z,12.95
2019-02-27T09:51:08.119Z,12.85
2019-02-27T09:52:08.098Z,12.85
2019-02-27T09:53:08.084Z,12.75
2019-02-27T09:54:08.235Z,12.94
2019-02-27T09:55:08.032Z,12.94
2019-02-27T09:56:08.004Z,12.65
2019-02-27T09:57:08.186Z,12.94
2019-02-27T09:58:12.621Z,13.23
2019-02-27T09:59:08.136Z,13.32
2019-02-27T10:00:08.005Z,13.04
2019-02-27T10:01:07.887Z,13.03
2019-02-27T10:02:12.443Z,13.13
2019-02-27T10:03:07.852Z,13.04
2019-02-27T10:04:09.613Z,13.04
2019-02-27T10:05:07.808Z,12.93
2019-02-27T10:06:08.702Z,13.13
2019-02-27T10:07:07.770Z,13.33
2019-02-27T10:08:09.925Z,13.43
2019-02-27T10:09:07.958Z,13.32
2019-02-27T10:10:09.963Z,13.52
2019-02-27T10:11:07.659Z,13.52
2019-02-27T10:12:08.000Z,13.62
2019-02-27T10:13:07.685Z,13.52
2019-02-27T10:14:07.595Z,13.62
2019-02-27T10:15:07.802Z,13.62
2019-02-27T10:16:07.998Z,13.52
2019-02-27T10:17:11.266Z,13.62
2019-02-27T10:18:07.559Z,13.52
2019-02-27T10:19:07.494Z,13.62
2019-02-27T10:20:07.462Z,13.53
2019-02-27T10:21:09.329Z,13.71
2019-02-27T10:22:07.420Z,13.52
2019-02-27T10:23:07.391Z,13.72
2019-02-27T10:24:07.864Z,13.62
2019-02-27T10:25:08.497Z,13.53
2019-02-27T10:26:07.341Z,13.82
2019-02-27T10:27:07.404Z,13.34
2019-02-27T10:28:07.353Z,13.53
2019-02-27T10:29:07.253Z,13.43
2019-02-27T10:30:14.041Z,13.34
2019-02-27T10:31:07.248Z,13.53
2019-02-27T10:32:07.265Z,13.53
2019-02-27T10:33:07.235Z,13.63
2019-02-27T10:34:07.143Z,13.54
2019-02-27T10:35:07.130Z,13.44
2019-02-27T10:36:07.100Z,13.44
2019-02-27T10:37:07.253Z,13.44
2019-02-27T10:38:07.051Z,13.44
2019-02-27T10:39:07.055Z,13.73
2019-02-27T10:40:08.721Z,13.44
2019-02-27T10:41:07.449Z,13.63
2019-02-27T10:42:06.989Z,13.05
2019-02-27T10:43:07.404Z,13.44
2019-02-27T10:44:06.934Z,13.44
2019-02-27T10:45:09.674Z,13.54
2019-02-27T10:46:06.886Z,13.63
2019-02-27T10:47:06.852Z,13.54
2019-02-27T10:48:06.838Z,13.73
2019-02-27T10:49:06.819Z,13.54
2019-02-27T10:50:06.557Z,13.64
2019-02-27T10:51:09.422Z,13.35
2019-02-27T10:52:07.036Z,13.83
2019-02-27T10:53:07.034Z,13.54
2019-02-27T10:54:07.917Z,13.45
2019-02-27T10:55:06.802Z,13.35
2019-02-27T10:56:06.675Z,12.97
2019-02-27T10:57:08.382Z,13.25
2019-02-27T10:58:07.717Z,13.15
2019-02-27T10:59:06.626Z,13.25
2019-02-27T11:00:06.571Z,13.25
2019-02-27T11:01:06.543Z,13.06
2019-02-27T11:02:06.528Z,13.15
2019-02-27T11:03:06.514Z,13.06
2019-02-27T11:04:06.487Z,13.06
2019-02-27T11:05:06.460Z,13.15
2019-02-27T11:06:06.437Z,13.26
2019-02-27T11:07:06.424Z,12.87
2019-02-27T11:08:06.407Z,13.06
2019-02-27T11:09:07.588Z,13.06
2019-02-27T11:10:06.346Z,13.06
2019-02-27T11:11:08.485Z,13.06
2019-02-27T11:12:06.312Z,13.06
2019-02-27T11:13:09.224Z,13.45
2019-02-27T11:14:06.256Z,13.25
2019-02-27T11:15:08.094Z,13.06
2019-02-27T11:16:06.223Z,12.96
2019-02-27T11:17:06.203Z,13.15
2019-02-27T11:18:08.028Z,12.77
2019-02-27T11:19:06.154Z,13.06
2019-02-27T11:20:06.147Z,12.87
2019-02-27T11:21:06.119Z,13.25
2019-02-27T11:22:06.115Z,13.25
2019-02-27T11:23:09.138Z,13.64
2019-02-27T11:24:06.044Z,13.54
2019-02-27T11:25:06.016Z,13.45
2019-02-27T11:26:06.008Z,13.54
2019-02-27T11:27:09.155Z,13.73
2019-02-27T11:28:05.958Z,13.35
2019-02-27T11:29:05.936Z,13.25
2019-02-27T11:30:05.943Z,13.06
2019-02-27T11:31:08.348Z,13.15
2019-02-27T11:32:05.870Z,13.25
2019-02-27T11:33:05.848Z,13.45
2019-02-27T11:34:10.021Z,13.35
2019-02-27T11:35:05.825Z,13.35
2019-02-27T11:36:08.636Z,13.45
2019-02-27T11:37:06.759Z,13.45
2019-02-27T11:38:05.732Z,13.45
2019-02-27T11:39:07.199Z,13.25
2019-02-27T11:40:09.866Z,13.45
2019-02-27T11:41:05.681Z,13.25
2019-02-27T11:42:05.669Z,13.35
2019-02-27T11:43:09.083Z,13.35
2019-02-27T11:44:05.611Z,13.25
2019-02-27T11:45:05.590Z,13.25
2019-02-27T11:46:05.554Z,13.25
2019-02-27T11:47:05.541Z,13.45
2019-02-27T11:48:05.546Z,13.15
2019-02-27T11:49:05.645Z,13.15
2019-02-27T11:50:05.481Z,13.25
2019-02-27T11:51:05.453Z,13.35
2019-02-27T11:52:05.429Z,13.25
2019-02-27T11:53:05.513Z,13.64
2019-02-27T11:54:08.223Z,13.73
2019-02-27T11:55:05.366Z,13.35
2019-02-27T11:56:05.350Z,13.45
2019-02-27T11:57:05.313Z,13.06
2019-02-27T11:58:07.891Z,13.25
2019-02-27T11:59:05.428Z,13.45
2019-02-27T12:00:05.275Z,13.25
2019-02-27T12:01:05.231Z,13.25
2019-02-27T12:02:05.217Z,13.25
2019-02-27T12:03:05.207Z,13.06
2019-02-27T12:04:05.275Z,12.96
2019-02-27T12:05:05.203Z,13.06
2019-02-27T12:06:09.934Z,13.15
2019-02-27T12:07:05.113Z,13.25
2019-02-27T12:08:05.326Z,13.06
2019-02-27T12:09:05.058Z,13.35
2019-02-27T12:10:06.557Z,13.35
2019-02-27T12:11:05.092Z,13.25
2019-02-27T12:12:04.996Z,13.06
2019-02-27T12:13:04.979Z,12.96
2019-02-27T12:14:06.493Z,13.06
2019-02-27T12:15:06.718Z,13.25
2019-02-27T12:16:04.903Z,13.06
2019-02-27T12:17:04.887Z,12.87
2019-02-27T12:18:04.851Z,12.87
2019-02-27T12:19:06.341Z,12.96
2019-02-27T12:20:04.817Z,12.77
2019-02-27T12:21:04.953Z,13.15
2019-02-27T12:22:04.769Z,12.87
2019-02-27T12:23:07.406Z,13.06
2019-02-27T12:24:05.402Z,13.06
2019-02-27T12:25:04.707Z,13.06
2019-02-27T12:26:05.491Z,12.96
2019-02-27T12:27:04.660Z,13.06
2019-02-27T12:28:04.642Z,12.87
2019-02-27T12:29:04.726Z,13.07
2019-02-27T12:30:06.249Z,12.87
2019-02-27T12:31:04.571Z,12.96
2019-02-27T12:32:06.139Z,12.87
2019-02-27T12:33:04.282Z,12.87
2019-02-27T12:34:05.732Z,12.96
2019-02-27T12:35:08.210Z,13.25
2019-02-27T12:36:04.459Z,12.67
2019-02-27T12:37:04.441Z,12.87
2019-02-27T12:38:11.376Z,12.87
2019-02-27T12:39:04.417Z,13.25
2019-02-27T12:40:04.380Z,13.15
2019-02-27T12:41:04.355Z,13.25
2019-02-27T12:42:09.125Z,13.54
2019-02-27T12:43:04.322Z,13.45
2019-02-27T12:44:04.293Z,13.35
2019-02-27T12:45:04.304Z,13.54
2019-02-27T12:46:04.250Z,13.83
2019-02-27T12:47:05.469Z,13.25
2019-02-27T12:48:04.230Z,13.75
2019-02-27T12:49:04.185Z,13.35
2019-02-27T12:50:04.163Z,12.97
2019-02-27T12:51:06.608Z,13.07
2019-02-27T12:52:04.118Z,13.16
2019-02-27T12:53:04.088Z,13.16
2019-02-27T12:54:04.070Z,13.26
2019-02-27T12:55:04.942Z,13.55
2019-02-27T12:56:04.028Z,13.07